sensor_id;sensor_type;location;lat;lon;timestamp;temperature;humidity
43991;DHT22;29654;50.784;20.604;2023-09-19T00:01:34;23.00;53.30
43991;DHT22;29654;50.784;20.604;2023-09-19T00:06:36;23.00;53.30
43991;DHT22;29654;50.784;20.604;2023-09-19T00:11:40;23.00;53.40
43991;DHT22;29654;50.784;20.604;2023-09-19T00:16:43;23.00;53.50
43991;DHT22;29654;50.784;20.604;2023-09-19T00:21:47;23.00;53.50
43991;DHT22;29654;50.784;20.604;2023-09-19T00:26:51;23.00;53.50
43991;DHT22;29654;50.784;20.604;2023-09-19T00:31:56;22.90;53.70
43991;DHT22;29654;50.784;20.604;2023-09-19T00:37:00;23.00;53.70
43991;DHT22;29654;50.784;20.604;2023-09-19T00:42:04;23.00;53.80
43991;DHT22;29654;50.784;20.604;2023-09-19T00:47:08;23.00;54.00
43991;DHT22;29654;50.784;20.604;2023-09-19T00:52:16;23.00;53.90
43991;DHT22;29654;50.784;20.604;2023-09-19T00:57:22;23.00;53.90
43991;DHT22;29654;50.784;20.604;2023-09-19T01:02:27;23.00;54.00
43991;DHT22;29654;50.784;20.604;2023-09-19T01:07:32;23.00;53.90
43991;DHT22;29654;50.784;20.604;2023-09-19T01:12:46;23.00;53.90
43991;DHT22;29654;50.784;20.604;2023-09-19T01:18:00;23.00;54.40
43991;DHT22;29654;50.784;20.604;2023-09-19T01:23:12;23.00;54.30
43991;DHT22;29654;50.784;20.604;2023-09-19T01:28:30;23.00;54.40
43991;DHT22;29654;50.784;20.604;2023-09-19T01:34:01;23.00;54.80
43991;DHT22;29654;50.784;20.604;2023-09-19T01:39:06;23.00;55.00
43991;DHT22;29654;50.784;20.604;2023-09-19T01:44:16;23.00;54.50
43991;DHT22;29654;50.784;20.604;2023-09-19T01:49:30;23.00;54.90
43991;DHT22;29654;50.784;20.604;2023-09-19T01:54:41;22.90;55.20
43991;DHT22;29654;50.784;20.604;2023-09-19T01:59:52;22.90;55.10
43991;DHT22;29654;50.784;20.604;2023-09-19T02:05:00;22.90;55.00
43991;DHT22;29654;50.784;20.604;2023-09-19T02:10:05;22.90;55.10
43991;DHT22;29654;50.784;20.604;2023-09-19T02:15:11;22.90;55.20
43991;DHT22;29654;50.784;20.604;2023-09-19T02:20:15;22.90;55.30
43991;DHT22;29654;50.784;20.604;2023-09-19T02:25:19;22.90;55.40
43991;DHT22;29654;50.784;20.604;2023-09-19T02:30:22;23.00;55.30
43991;DHT22;29654;50.784;20.604;2023-09-19T02:35:28;23.00;55.30
43991;DHT22;29654;50.784;20.604;2023-09-19T02:40:33;23.10;55.50
43991;DHT22;29654;50.784;20.604;2023-09-19T02:45:37;23.10;55.40
43991;DHT22;29654;50.784;20.604;2023-09-19T02:50:41;23.10;55.30
43991;DHT22;29654;50.784;20.604;2023-09-19T02:55:43;23.10;55.50
43991;DHT22;29654;50.784;20.604;2023-09-19T03:00:46;23.20;55.50
43991;DHT22;29654;50.784;20.604;2023-09-19T03:05:52;23.20;55.40
43991;DHT22;29654;50.784;20.604;2023-09-19T03:10:56;23.30;55.50
43991;DHT22;29654;50.784;20.604;2023-09-19T03:15:58;23.30;55.50
43991;DHT22;29654;50.784;20.604;2023-09-19T03:21:05;23.30;55.40
43991;DHT22;29654;50.784;20.604;2023-09-19T03:26:08;23.40;55.50
43991;DHT22;29654;50.784;20.604;2023-09-19T03:31:11;23.40;55.40
43991;DHT22;29654;50.784;20.604;2023-09-19T03:36:15;23.40;55.40
43991;DHT22;29654;50.784;20.604;2023-09-19T03:41:18;23.50;55.50
43991;DHT22;29654;50.784;20.604;2023-09-19T03:46:21;23.50;55.40
43991;DHT22;29654;50.784;20.604;2023-09-19T03:51:25;23.60;55.40
43991;DHT22;29654;50.784;20.604;2023-09-19T03:56:28;23.60;55.40
43991;DHT22;29654;50.784;20.604;2023-09-19T04:01:31;23.60;55.30
43991;DHT22;29654;50.784;20.604;2023-09-19T04:06:36;23.70;55.30
43991;DHT22;29654;50.784;20.604;2023-09-19T04:11:38;23.70;55.40
43991;DHT22;29654;50.784;20.604;2023-09-19T04:16:41;23.70;55.40
43991;DHT22;29654;50.784;20.604;2023-09-19T04:21:45;23.70;55.40
43991;DHT22;29654;50.784;20.604;2023-09-19T04:26:47;23.80;55.50
43991;DHT22;29654;50.784;20.604;2023-09-19T04:31:50;23.80;55.40
43991;DHT22;29654;50.784;20.604;2023-09-19T04:36:54;23.80;55.40
43991;DHT22;29654;50.784;20.604;2023-09-19T04:41:59;23.80;55.50
43991;DHT22;29654;50.784;20.604;2023-09-19T04:47:01;23.80;55.40
43991;DHT22;29654;50.784;20.604;2023-09-19T04:52:06;23.80;55.50
43991;DHT22;29654;50.784;20.604;2023-09-19T04:57:08;23.80;55.60
43991;DHT22;29654;50.784;20.604;2023-09-19T05:02:11;23.70;55.60
43991;DHT22;29654;50.784;20.604;2023-09-19T05:07:15;23.70;55.60
43991;DHT22;29654;50.784;20.604;2023-09-19T05:12:19;23.70;55.80
43991;DHT22;29654;50.784;20.604;2023-09-19T05:17:22;23.70;55.80
43991;DHT22;29654;50.784;20.604;2023-09-19T05:22:28;23.60;55.90
43991;DHT22;29654;50.784;20.604;2023-09-19T05:27:30;23.70;56.10
43991;DHT22;29654;50.784;20.604;2023-09-19T05:32:34;23.70;56.00
43991;DHT22;29654;50.784;20.604;2023-09-19T05:37:38;23.70;56.00
43991;DHT22;29654;50.784;20.604;2023-09-19T05:42:40;23.60;56.10
43991;DHT22;29654;50.784;20.604;2023-09-19T05:47:44;23.60;56.30
43991;DHT22;29654;50.784;20.604;2023-09-19T05:52:53;23.60;56.40
43991;DHT22;29654;50.784;20.604;2023-09-19T05:57:56;23.70;56.90
43991;DHT22;29654;50.784;20.604;2023-09-19T06:03:00;23.70;56.70
43991;DHT22;29654;50.784;20.604;2023-09-19T06:08:07;23.70;56.90
43991;DHT22;29654;50.784;20.604;2023-09-19T06:13:10;23.80;57.10
43991;DHT22;29654;50.784;20.604;2023-09-19T06:18:13;23.90;57.00
43991;DHT22;29654;50.784;20.604;2023-09-19T06:23:22;24.00;56.90
43991;DHT22;29654;50.784;20.604;2023-09-19T06:28:27;24.10;57.10
43991;DHT22;29654;50.784;20.604;2023-09-19T06:33:30;24.20;56.90
43991;DHT22;29654;50.784;20.604;2023-09-19T06:38:34;24.20;56.70
43991;DHT22;29654;50.784;20.604;2023-09-19T06:43:37;24.20;56.70
43991;DHT22;29654;50.784;20.604;2023-09-19T06:48:40;24.20;56.60
43991;DHT22;29654;50.784;20.604;2023-09-19T06:53:46;24.20;56.80
43991;DHT22;29654;50.784;20.604;2023-09-19T06:58:48;24.20;56.90
43991;DHT22;29654;50.784;20.604;2023-09-19T07:03:51;24.20;56.80
43991;DHT22;29654;50.784;20.604;2023-09-19T07:08:55;24.20;56.90
43991;DHT22;29654;50.784;20.604;2023-09-19T07:13:58;24.20;56.90
43991;DHT22;29654;50.784;20.604;2023-09-19T07:19:00;24.30;57.00
43991;DHT22;29654;50.784;20.604;2023-09-19T07:24:06;24.30;57.00
43991;DHT22;29654;50.784;20.604;2023-09-19T07:29:08;24.30;57.20
43991;DHT22;29654;50.784;20.604;2023-09-19T07:34:11;24.40;57.30
43991;DHT22;29654;50.784;20.604;2023-09-19T07:39:16;24.40;57.30
43991;DHT22;29654;50.784;20.604;2023-09-19T07:44:19;24.50;57.50
43991;DHT22;29654;50.784;20.604;2023-09-19T07:49:22;24.60;57.50
43991;DHT22;29654;50.784;20.604;2023-09-19T07:54:27;24.70;57.50
43991;DHT22;29654;50.784;20.604;2023-09-19T07:59:36;24.80;57.80
43991;DHT22;29654;50.784;20.604;2023-09-19T08:04:40;24.80;57.50
43991;DHT22;29654;50.784;20.604;2023-09-19T08:09:43;24.90;57.50
43991;DHT22;29654;50.784;20.604;2023-09-19T08:14:49;25.00;57.50
43991;DHT22;29654;50.784;20.604;2023-09-19T08:19:52;25.10;57.50
43991;DHT22;29654;50.784;20.604;2023-09-19T08:24:56;25.10;57.40
43991;DHT22;29654;50.784;20.604;2023-09-19T08:29:59;25.20;57.50
43991;DHT22;29654;50.784;20.604;2023-09-19T08:35:01;25.20;57.40
43991;DHT22;29654;50.784;20.604;2023-09-19T08:40:07;25.30;57.40
43991;DHT22;29654;50.784;20.604;2023-09-19T08:45:11;25.30;57.50
43991;DHT22;29654;50.784;20.604;2023-09-19T08:50:19;25.40;57.40
43991;DHT22;29654;50.784;20.604;2023-09-19T08:55:30;25.40;57.50
43991;DHT22;29654;50.784;20.604;2023-09-19T09:00:35;25.40;57.00
43991;DHT22;29654;50.784;20.604;2023-09-19T09:05:39;25.30;56.80
43991;DHT22;29654;50.784;20.604;2023-09-19T09:10:46;25.20;56.70
43991;DHT22;29654;50.784;20.604;2023-09-19T09:15:48;25.20;56.90
43991;DHT22;29654;50.784;20.604;2023-09-19T09:20:51;25.10;56.80
43991;DHT22;29654;50.784;20.604;2023-09-19T09:25:56;25.00;56.80
43991;DHT22;29654;50.784;20.604;2023-09-19T09:31:03;24.90;56.90
43991;DHT22;29654;50.784;20.604;2023-09-19T09:36:09;24.80;56.90
43991;DHT22;29654;50.784;20.604;2023-09-19T09:41:15;24.70;57.00
43991;DHT22;29654;50.784;20.604;2023-09-19T09:46:28;24.60;57.20
43991;DHT22;29654;50.784;20.604;2023-09-19T09:52:00;24.50;57.30
43991;DHT22;29654;50.784;20.604;2023-09-19T09:57:09;24.40;57.50
43991;DHT22;29654;50.784;20.604;2023-09-19T10:02:24;24.40;57.70
43991;DHT22;29654;50.784;20.604;2023-09-19T10:07:31;24.30;57.70
43991;DHT22;29654;50.784;20.604;2023-09-19T10:12:47;24.30;57.80
43991;DHT22;29654;50.784;20.604;2023-09-19T10:17:52;24.20;58.20
43991;DHT22;29654;50.784;20.604;2023-09-19T10:23:03;24.10;58.10
43991;DHT22;29654;50.784;20.604;2023-09-19T10:28:14;24.10;58.10
43991;DHT22;29654;50.784;20.604;2023-09-19T10:33:23;24.00;58.30
43991;DHT22;29654;50.784;20.604;2023-09-19T10:38:27;24.00;58.40
43991;DHT22;29654;50.784;20.604;2023-09-19T10:43:32;24.00;58.60
43991;DHT22;29654;50.784;20.604;2023-09-19T10:48:37;24.00;58.70
43991;DHT22;29654;50.784;20.604;2023-09-19T10:53:46;24.00;58.70
43991;DHT22;29654;50.784;20.604;2023-09-19T10:59:05;24.00;58.80
43991;DHT22;29654;50.784;20.604;2023-09-19T11:04:30;24.00;59.30
43991;DHT22;29654;50.784;20.604;2023-09-19T11:09:45;24.00;59.30
43991;DHT22;29654;50.784;20.604;2023-09-19T11:14:50;24.10;59.30
43991;DHT22;29654;50.784;20.604;2023-09-19T11:20:17;24.10;58.90
43991;DHT22;29654;50.784;20.604;2023-09-19T11:25:41;24.20;59.20
43991;DHT22;29654;50.784;20.604;2023-09-19T11:30:51;24.20;59.10
43991;DHT22;29654;50.784;20.604;2023-09-19T11:36:02;24.20;58.90
43991;DHT22;29654;50.784;20.604;2023-09-19T11:41:36;24.20;59.30
43991;DHT22;29654;50.784;20.604;2023-09-19T11:46:54;24.30;59.20
43991;DHT22;29654;50.784;20.604;2023-09-19T11:51:58;24.40;59.20
43991;DHT22;29654;50.784;20.604;2023-09-19T11:57:01;24.40;58.90
43991;DHT22;29654;50.784;20.604;2023-09-19T12:02:07;24.40;58.70
43991;DHT22;29654;50.784;20.604;2023-09-19T12:07:13;24.50;58.90
43991;DHT22;29654;50.784;20.604;2023-09-19T12:12:19;24.50;58.70
43991;DHT22;29654;50.784;20.604;2023-09-19T12:17:24;24.50;58.70
43991;DHT22;29654;50.784;20.604;2023-09-19T12:22:39;24.60;58.80
43991;DHT22;29654;50.784;20.604;2023-09-19T12:27:45;24.60;58.80
43991;DHT22;29654;50.784;20.604;2023-09-19T12:32:49;24.70;58.70
43991;DHT22;29654;50.784;20.604;2023-09-19T12:37:52;24.70;58.80
43991;DHT22;29654;50.784;20.604;2023-09-19T12:42:57;24.70;58.70
43991;DHT22;29654;50.784;20.604;2023-09-19T12:48:20;24.80;58.70
43991;DHT22;29654;50.784;20.604;2023-09-19T12:53:30;24.90;58.90
43991;DHT22;29654;50.784;20.604;2023-09-19T12:58:34;24.90;58.70
43991;DHT22;29654;50.784;20.604;2023-09-19T13:03:41;25.00;58.70
43991;DHT22;29654;50.784;20.604;2023-09-19T13:08:43;25.10;58.70
43991;DHT22;29654;50.784;20.604;2023-09-19T13:14:15;25.10;58.70
43991;DHT22;29654;50.784;20.604;2023-09-19T13:24:49;25.10;58.90
43991;DHT22;29654;50.784;20.604;2023-09-19T13:29:52;25.10;58.70
43991;DHT22;29654;50.784;20.604;2023-09-19T13:34:55;25.20;58.70
43991;DHT22;29654;50.784;20.604;2023-09-19T13:40:00;25.20;58.70
43991;DHT22;29654;50.784;20.604;2023-09-19T13:45:03;25.20;58.80
43991;DHT22;29654;50.784;20.604;2023-09-19T13:50:07;25.30;58.80
43991;DHT22;29654;50.784;20.604;2023-09-19T13:55:11;25.20;58.80
43991;DHT22;29654;50.784;20.604;2023-09-19T14:00:15;25.30;58.90
43991;DHT22;29654;50.784;20.604;2023-09-19T14:05:19;25.30;58.80
43991;DHT22;29654;50.784;20.604;2023-09-19T14:10:23;25.30;58.70
43991;DHT22;29654;50.784;20.604;2023-09-19T14:15:27;25.30;58.90
43991;DHT22;29654;50.784;20.604;2023-09-19T14:20:31;25.30;58.80
43991;DHT22;29654;50.784;20.604;2023-09-19T14:25:36;25.20;58.80
43991;DHT22;29654;50.784;20.604;2023-09-19T14:30:39;25.20;58.90
43991;DHT22;29654;50.784;20.604;2023-09-19T14:35:41;25.10;58.70
43991;DHT22;29654;50.784;20.604;2023-09-19T14:40:45;25.00;58.90
43991;DHT22;29654;50.784;20.604;2023-09-19T14:45:50;24.90;59.00
43991;DHT22;29654;50.784;20.604;2023-09-19T14:50:53;24.80;59.10
43991;DHT22;29654;50.784;20.604;2023-09-19T14:56:00;24.70;59.10
43991;DHT22;29654;50.784;20.604;2023-09-19T15:01:05;24.70;59.30
43991;DHT22;29654;50.784;20.604;2023-09-19T15:06:09;24.70;59.10
43991;DHT22;29654;50.784;20.604;2023-09-19T15:11:16;24.70;59.10
43991;DHT22;29654;50.784;20.604;2023-09-19T15:16:19;24.70;59.00
43991;DHT22;29654;50.784;20.604;2023-09-19T15:21:22;24.60;58.90
43991;DHT22;29654;50.784;20.604;2023-09-19T15:26:27;24.60;58.90
43991;DHT22;29654;50.784;20.604;2023-09-19T15:31:30;24.60;58.80
43991;DHT22;29654;50.784;20.604;2023-09-19T15:36:33;24.60;58.70
43991;DHT22;29654;50.784;20.604;2023-09-19T15:41:39;24.60;58.70
43991;DHT22;29654;50.784;20.604;2023-09-19T15:46:43;24.60;58.80
43991;DHT22;29654;50.784;20.604;2023-09-19T15:51:46;24.60;58.70
43991;DHT22;29654;50.784;20.604;2023-09-19T15:56:50;24.60;58.50
43991;DHT22;29654;50.784;20.604;2023-09-19T16:01:53;24.60;58.60
43991;DHT22;29654;50.784;20.604;2023-09-19T16:06:55;24.60;58.50
43991;DHT22;29654;50.784;20.604;2023-09-19T16:12:00;24.60;58.50
43991;DHT22;29654;50.784;20.604;2023-09-19T16:17:03;24.60;58.50
43991;DHT22;29654;50.784;20.604;2023-09-19T16:22:08;24.60;58.50
43991;DHT22;29654;50.784;20.604;2023-09-19T16:27:12;24.60;58.40
43991;DHT22;29654;50.784;20.604;2023-09-19T16:32:16;24.60;58.50
43991;DHT22;29654;50.784;20.604;2023-09-19T16:37:21;24.60;58.30
43991;DHT22;29654;50.784;20.604;2023-09-19T16:42:25;24.60;58.30
43991;DHT22;29654;50.784;20.604;2023-09-19T16:47:28;24.60;58.30
43991;DHT22;29654;50.784;20.604;2023-09-19T16:52:30;24.60;58.20
43991;DHT22;29654;50.784;20.604;2023-09-19T16:57:35;24.60;58.20
43991;DHT22;29654;50.784;20.604;2023-09-19T17:02:37;24.60;59.00
43991;DHT22;29654;50.784;20.604;2023-09-19T17:07:40;24.60;58.30
43991;DHT22;29654;50.784;20.604;2023-09-19T17:12:45;24.50;58.20
43991;DHT22;29654;50.784;20.604;2023-09-19T17:17:52;24.50;58.40
43991;DHT22;29654;50.784;20.604;2023-09-19T17:22:57;24.50;58.30
43991;DHT22;29654;50.784;20.604;2023-09-19T17:28:01;24.40;58.30
43991;DHT22;29654;50.784;20.604;2023-09-19T17:33:04;24.40;58.40
43991;DHT22;29654;50.784;20.604;2023-09-19T17:38:07;24.40;58.40
43991;DHT22;29654;50.784;20.604;2023-09-19T17:43:12;24.40;58.30
43991;DHT22;29654;50.784;20.604;2023-09-19T17:48:14;24.40;58.40
43991;DHT22;29654;50.784;20.604;2023-09-19T17:53:17;24.30;58.40
43991;DHT22;29654;50.784;20.604;2023-09-19T17:58:21;24.30;58.30
43991;DHT22;29654;50.784;20.604;2023-09-19T18:03:24;24.30;58.50
43991;DHT22;29654;50.784;20.604;2023-09-19T18:08:28;24.20;58.30
43991;DHT22;29654;50.784;20.604;2023-09-19T18:13:32;24.20;58.40
43991;DHT22;29654;50.784;20.604;2023-09-19T18:18:35;24.10;58.40
43991;DHT22;29654;50.784;20.604;2023-09-19T18:23:38;24.10;58.40
43991;DHT22;29654;50.784;20.604;2023-09-19T18:28:42;24.10;58.50
43991;DHT22;29654;50.784;20.604;2023-09-19T18:33:44;24.00;58.60
43991;DHT22;29654;50.784;20.604;2023-09-19T18:38:48;24.00;58.50
43991;DHT22;29654;50.784;20.604;2023-09-19T18:43:53;24.00;58.60
43991;DHT22;29654;50.784;20.604;2023-09-19T18:48:57;23.90;58.70
43991;DHT22;29654;50.784;20.604;2023-09-19T18:53:59;23.90;58.70
43991;DHT22;29654;50.784;20.604;2023-09-19T18:59:04;23.90;58.90
43991;DHT22;29654;50.784;20.604;2023-09-19T19:04:07;23.90;59.00
43991;DHT22;29654;50.784;20.604;2023-09-19T19:09:12;23.80;58.90
43991;DHT22;29654;50.784;20.604;2023-09-19T19:14:16;23.80;59.00
43991;DHT22;29654;50.784;20.604;2023-09-19T19:19:19;23.80;59.10
43991;DHT22;29654;50.784;20.604;2023-09-19T19:24:22;23.70;59.00
43991;DHT22;29654;50.784;20.604;2023-09-19T19:29:26;23.70;59.60
43991;DHT22;29654;50.784;20.604;2023-09-19T19:34:29;23.70;59.80
43991;DHT22;29654;50.784;20.604;2023-09-19T19:39:33;23.70;59.20
43991;DHT22;29654;50.784;20.604;2023-09-19T19:44:37;23.60;59.20
43991;DHT22;29654;50.784;20.604;2023-09-19T19:49:40;23.60;59.20
43991;DHT22;29654;50.784;20.604;2023-09-19T19:54:44;23.60;59.20
43991;DHT22;29654;50.784;20.604;2023-09-19T19:59:51;23.50;59.20
43991;DHT22;29654;50.784;20.604;2023-09-19T20:04:55;23.50;59.20
43991;DHT22;29654;50.784;20.604;2023-09-19T20:09:57;23.50;59.20
43991;DHT22;29654;50.784;20.604;2023-09-19T20:15:01;23.40;59.10
43991;DHT22;29654;50.784;20.604;2023-09-19T20:20:05;23.40;59.10
43991;DHT22;29654;50.784;20.604;2023-09-19T20:25:15;23.40;59.20
43991;DHT22;29654;50.784;20.604;2023-09-19T20:30:21;23.30;59.10
43991;DHT22;29654;50.784;20.604;2023-09-19T20:35:23;23.30;59.20
43991;DHT22;29654;50.784;20.604;2023-09-19T20:40:26;23.30;59.10
43991;DHT22;29654;50.784;20.604;2023-09-19T20:45:30;23.20;59.20
43991;DHT22;29654;50.784;20.604;2023-09-19T20:50:34;23.10;59.30
43991;DHT22;29654;50.784;20.604;2023-09-19T20:55:37;23.10;59.30
43991;DHT22;29654;50.784;20.604;2023-09-19T21:00:42;23.10;59.40
43991;DHT22;29654;50.784;20.604;2023-09-19T21:05:46;23.10;59.40
43991;DHT22;29654;50.784;20.604;2023-09-19T21:10:48;23.00;59.20
43991;DHT22;29654;50.784;20.604;2023-09-19T21:15:53;23.00;59.20
43991;DHT22;29654;50.784;20.604;2023-09-19T21:20:55;23.00;59.30
43991;DHT22;29654;50.784;20.604;2023-09-19T21:26:04;22.90;59.20
43991;DHT22;29654;50.784;20.604;2023-09-19T21:31:09;22.80;59.10
43991;DHT22;29654;50.784;20.604;2023-09-19T21:36:13;22.80;59.00
43991;DHT22;29654;50.784;20.604;2023-09-19T21:41:20;22.70;58.90
43991;DHT22;29654;50.784;20.604;2023-09-19T21:46:25;22.70;59.10
43991;DHT22;29654;50.784;20.604;2023-09-19T21:51:28;22.60;59.20
43991;DHT22;29654;50.784;20.604;2023-09-19T21:56:31;22.60;59.20
43991;DHT22;29654;50.784;20.604;2023-09-19T22:01:35;22.50;59.10
43991;DHT22;29654;50.784;20.604;2023-09-19T22:06:40;22.50;59.00
43991;DHT22;29654;50.784;20.604;2023-09-19T22:11:42;22.40;59.00
43991;DHT22;29654;50.784;20.604;2023-09-19T22:16:46;22.40;59.00
43991;DHT22;29654;50.784;20.604;2023-09-19T22:21:51;22.30;59.00
43991;DHT22;29654;50.784;20.604;2023-09-19T22:26:54;22.30;59.00
43991;DHT22;29654;50.784;20.604;2023-09-19T22:31:57;22.20;59.00
43991;DHT22;29654;50.784;20.604;2023-09-19T22:37:00;22.20;59.00
43991;DHT22;29654;50.784;20.604;2023-09-19T22:42:03;22.10;58.80
43991;DHT22;29654;50.784;20.604;2023-09-19T22:47:13;22.10;59.00
43991;DHT22;29654;50.784;20.604;2023-09-19T22:52:15;22.00;59.20
43991;DHT22;29654;50.784;20.604;2023-09-19T22:57:19;22.00;59.30
43991;DHT22;29654;50.784;20.604;2023-09-19T23:02:23;21.90;59.40
43991;DHT22;29654;50.784;20.604;2023-09-19T23:07:29;21.80;59.40
43991;DHT22;29654;50.784;20.604;2023-09-19T23:12:31;21.80;59.30
43991;DHT22;29654;50.784;20.604;2023-09-19T23:17:35;21.80;59.30
43991;DHT22;29654;50.784;20.604;2023-09-19T23:22:38;21.70;58.90
43991;DHT22;29654;50.784;20.604;2023-09-19T23:27:41;21.70;58.80
43991;DHT22;29654;50.784;20.604;2023-09-19T23:32:55;21.60;58.70
43991;DHT22;29654;50.784;20.604;2023-09-19T23:37:58;21.50;58.70
43991;DHT22;29654;50.784;20.604;2023-09-19T23:43:01;21.40;58.70
43991;DHT22;29654;50.784;20.604;2023-09-19T23:48:12;21.30;58.70
43991;DHT22;29654;50.784;20.604;2023-09-19T23:53:17;21.20;58.70
43991;DHT22;29654;50.784;20.604;2023-09-19T23:58:20;21.10;58.70
